Time;durP1;ratioP1;P1;durP2;ratioP2;P2;SDS_P1;SDS_P2;PMS_P1;PMS_P2;Temp;Humidity;BMP_temperature;BMP_pressure;BME280_temperature;BME280_humidity;BME280_pressure;Samples;Min_cycle;Max_cycle;Signal;HPM_P1;HPM_P2
2021/07/07 00:00:11;;;;;;;7.63;2.80;;;18.30;71.20;;;;;;5118447;28;20183;-83
2021/07/07 00:02:36;;;;;;;5.45;2.30;;;18.30;71.80;;;;;;5124006;28;20203;-83
2021/07/07 00:05:03;;;;;;;3.07;2.17;;;18.40;71.90;;;;;;5131671;28;20202;-83
2021/07/07 00:07:29;;;;;;;10.60;2.42;;;18.60;71.40;;;;;;5125291;28;20294;-84
2021/07/07 00:09:55;;;;;;;4.33;2.70;;;18.70;70.80;;;;;;5122364;28;20223;-84
2021/07/07 00:12:20;;;;;;;10.03;2.90;;;18.70;70.80;;;;;;5118512;28;20203;-84
2021/07/07 00:14:46;;;;;;;10.60;2.23;;;18.70;70.40;;;;;;5099990;28;20168;-84
2021/07/07 00:17:12;;;;;;;2.50;2.13;;;18.80;70.20;;;;;;5097640;28;20172;-84
2021/07/07 00:19:37;;;;;;;6.97;2.90;;;18.70;70.20;;;;;;5102662;28;20172;-83
2021/07/07 00:22:03;;;;;;;7.30;2.53;;;18.80;70.20;;;;;;5104035;28;20291;-84
2021/07/07 00:24:29;;;;;;;2.37;2.10;;;18.80;69.90;;;;;;5103750;28;20211;-84
2021/07/07 00:26:55;;;;;;;7.77;2.40;;;18.90;69.90;;;;;;5103233;28;20264;-84
2021/07/07 00:29:20;;;;;;;4.10;2.23;;;19.00;69.20;;;;;;5103655;28;20179;-83
2021/07/07 00:31:46;;;;;;;5.63;3.63;;;18.90;69.10;;;;;;5102961;28;20574;-83
2021/07/07 00:34:12;;;;;;;2.13;1.80;;;18.90;69.50;;;;;;5103052;28;20194;-84
2021/07/07 00:36:37;;;;;;;2.60;2.00;;;19.00;69.20;;;;;;5102619;28;20172;-83
2021/07/07 00:39:04;;;;;;;8.53;2.23;;;19.00;68.80;;;;;;5104212;28;20214;-84
2021/07/07 00:41:30;;;;;;;9.63;2.80;;;19.20;68.70;;;;;;5104889;28;20195;-84
2021/07/07 00:43:57;;;;;;;5.00;2.08;;;19.20;67.90;;;;;;5102857;28;20232;-84
2021/07/07 00:46:23;;;;;;;4.28;2.28;;;19.30;67.90;;;;;;5103135;28;20176;-83
2021/07/07 00:48:49;;;;;;;4.40;2.60;;;19.30;67.70;;;;;;5108080;28;20197;-83
2021/07/07 00:51:15;;;;;;;5.00;2.43;;;19.30;67.60;;;;;;5121848;28;20214;-84
2021/07/07 00:53:43;;;;;;;12.52;2.55;;;19.20;67.60;;;;;;5123213;28;20210;-84
2021/07/07 00:56:12;;;;;;;4.63;2.30;;;19.30;67.50;;;;;;5122517;28;20183;-84
2021/07/07 00:58:38;;;;;;;3.95;2.50;;;19.30;67.30;;;;;;5126094;28;20175;-83
2021/07/07 01:01:05;;;;;;;2.80;2.00;;;19.20;67.30;;;;;;5122741;28;20198;-83
2021/07/07 01:03:31;;;;;;;4.95;2.35;;;19.20;67.70;;;;;;5121955;28;20229;-84
2021/07/07 01:05:57;;;;;;;4.45;2.25;;;19.30;67.50;;;;;;5122234;28;20179;-83
2021/07/07 01:08:22;;;;;;;7.23;1.80;;;19.30;67.20;;;;;;5122269;28;20240;-83
2021/07/07 01:10:48;;;;;;;3.97;2.53;;;19.30;67.20;;;;;;5122940;28;20199;-84
2021/07/07 01:13:14;;;;;;;3.17;2.03;;;19.30;67.00;;;;;;5109316;28;20266;-83
2021/07/07 01:15:42;;;;;;;10.43;2.23;;;19.20;67.00;;;;;;5103411;28;20559;-84
2021/07/07 01:18:09;;;;;;;7.20;2.50;;;19.20;67.20;;;;;;5102395;28;20253;-84
2021/07/07 01:20:35;;;;;;;4.00;2.40;;;19.10;67.70;;;;;;5100795;28;20183;-84
2021/07/07 01:23:03;;;;;;;7.22;2.47;;;19.30;67.70;;;;;;5101715;28;20253;-84
2021/07/07 01:25:29;;;;;;;6.18;2.08;;;19.20;67.60;;;;;;5101059;28;20654;-83
2021/07/07 01:27:57;;;;;;;7.03;2.90;;;19.10;67.90;;;;;;5101225;28;20218;-83
2021/07/07 01:30:23;;;;;;;5.38;2.78;;;18.90;68.30;;;;;;5101167;28;20199;-84
2021/07/07 01:32:51;;;;;;;2.67;2.42;;;18.90;68.60;;;;;;5100725;28;20196;-83
2021/07/07 01:35:17;;;;;;;8.70;2.30;;;18.70;68.80;;;;;;5100947;28;20172;-83
2021/07/07 01:37:44;;;;;;;3.37;1.70;;;18.70;69.10;;;;;;5101448;28;20168;-84
2021/07/07 01:40:12;;;;;;;5.72;2.13;;;18.80;69.40;;;;;;5100822;28;20414;-84
2021/07/07 01:42:38;;;;;;;6.28;2.10;;;18.80;69.30;;;;;;5100923;28;20737;-83
2021/07/07 01:45:08;;;;;;;4.05;1.90;;;18.80;69.60;;;;;;5106426;28;20168;-83
2021/07/07 01:47:34;;;;;;;3.50;2.00;;;18.90;69.20;;;;;;5102409;28;20182;-83
2021/07/07 01:50:00;;;;;;;2.80;1.80;;;18.90;69.00;;;;;;5116812;28;20202;-84
2021/07/07 01:52:26;;;;;;;4.70;1.97;;;19.00;68.70;;;;;;5130284;28;20214;-83
2021/07/07 01:54:52;;;;;;;3.50;2.13;;;18.90;69.20;;;;;;5121168;28;20405;-84
2021/07/07 01:57:19;;;;;;;3.10;1.70;;;18.90;68.60;;;;;;5123191;28;20171;-83
2021/07/07 01:59:44;;;;;;;3.83;2.20;;;18.90;68.60;;;;;;5121182;28;20179;-84
2021/07/07 02:02:10;;;;;;;2.50;2.17;;;18.80;69.10;;;;;;5120246;28;20270;-83
2021/07/07 02:04:36;;;;;;;2.50;2.27;;;18.80;69.30;;;;;;5121198;28;20261;-83
2021/07/07 02:07:02;;;;;;;7.27;1.73;;;18.90;69.30;;;;;;5121435;28;20199;-83
2021/07/07 02:09:28;;;;;;;5.97;2.10;;;19.00;69.00;;;;;;5120897;28;20198;-83
2021/07/07 02:11:53;;;;;;;3.40;2.10;;;19.10;68.70;;;;;;5121898;28;20210;-84
2021/07/07 02:14:20;;;;;;;8.10;3.40;;;19.20;68.00;;;;;;5120315;28;20190;-83
2021/07/07 02:16:46;;;;;;;7.30;1.80;;;19.20;67.70;;;;;;5121321;28;20199;-84
2021/07/07 02:19:15;;;;;;;4.83;1.77;;;19.10;67.90;;;;;;5121395;28;20175;-83
2021/07/07 02:21:41;;;;;;;7.05;2.03;;;19.10;68.20;;;;;;5120601;28;20222;-83
2021/07/07 02:24:07;;;;;;;2.53;1.63;;;19.20;67.80;;;;;;5120746;28;20205;-84
2021/07/07 02:26:33;;;;;;;5.95;1.90;;;19.00;68.40;;;;;;5119528;28;20185;-84
2021/07/07 02:28:59;;;;;;;5.20;3.13;;;19.00;68.80;;;;;;5119333;28;20179;-84
2021/07/07 02:31:25;;;;;;;3.47;2.67;;;18.90;69.70;;;;;;5117555;28;20469;-84
2021/07/07 02:33:51;;;;;;;3.50;1.97;;;18.80;71.00;;;;;;5116675;28;20416;-83
2021/07/07 02:36:17;;;;;;;4.30;2.00;;;18.80;71.70;;;;;;5116349;28;20171;-84
2021/07/07 02:38:42;;;;;;;7.40;2.03;;;18.70;72.10;;;;;;5119581;28;20171;-83
2021/07/07 02:41:08;;;;;;;3.00;2.63;;;18.70;72.40;;;;;;5120673;28;20433;-83
2021/07/07 02:43:34;;;;;;;3.23;2.00;;;18.70;72.40;;;;;;5121147;28;20232;-83
2021/07/07 02:46:00;;;;;;;4.93;2.63;;;18.80;72.20;;;;;;5127035;28;20174;-83
2021/07/07 02:48:26;;;;;;;7.07;2.10;;;18.80;72.40;;;;;;5125439;28;20184;-83
2021/07/07 02:50:52;;;;;;;4.97;2.70;;;18.90;72.30;;;;;;5121562;28;20203;-83
2021/07/07 02:53:18;;;;;;;5.63;2.10;;;18.90;71.90;;;;;;5118240;28;20567;-84
2021/07/07 02:55:44;;;;;;;6.45;2.50;;;18.90;71.60;;;;;;5114351;28;20179;-84
2021/07/07 02:58:10;;;;;;;7.40;2.63;;;19.00;71.80;;;;;;5120110;28;20179;-83
2021/07/07 03:00:41;;;;;;;3.17;2.38;;;19.00;71.20;;;;;;5120943;28;20643;-84
2021/07/07 03:03:27;;;;;;;3.60;2.30;;;18.90;71.50;;;;;;5119872;28;20285;-84
2021/07/07 03:06:01;;;;;;;6.20;2.53;;;19.10;71.10;;;;;;5120915;28;20171;-83
2021/07/07 03:08:29;;;;;;;4.30;2.83;;;19.00;70.40;;;;;;5120699;28;20174;-83
2021/07/07 03:10:56;;;;;;;2.28;2.13;;;19.00;70.50;;;;;;5119301;28;20217;-83
2021/07/07 03:13:23;;;;;;;1.90;1.75;;;18.90;70.60;;;;;;5120062;28;20208;-84
2021/07/07 03:15:49;;;;;;;3.20;2.22;;;18.80;70.90;;;;;;5119979;28;20457;-83
2021/07/07 03:18:16;;;;;;;3.85;2.30;;;18.80;71.20;;;;;;5119792;28;20183;-83
2021/07/07 03:20:44;;;;;;;6.18;2.58;;;18.60;71.30;;;;;;5119056;28;20540;-84
2021/07/07 03:23:10;;;;;;;6.20;2.47;;;18.70;71.70;;;;;;5121400;28;20183;-83
2021/07/07 03:25:37;;;;;;;3.60;2.78;;;18.70;71.80;;;;;;5120120;28;20179;-83
2021/07/07 03:28:05;;;;;;;6.10;2.80;;;18.70;72.00;;;;;;5119462;28;20175;-84
2021/07/07 03:30:31;;;;;;;7.18;2.17;;;18.70;72.00;;;;;;5121579;28;20182;-84
2021/07/07 03:32:58;;;;;;;3.85;2.70;;;18.70;72.20;;;;;;5119090;28;20661;-84
2021/07/07 03:35:24;;;;;;;6.00;2.70;;;18.70;72.20;;;;;;5119712;28;20175;-83
2021/07/07 03:37:50;;;;;;;3.77;2.17;;;18.70;72.30;;;;;;5120664;28;20266;-83
2021/07/07 03:40:17;;;;;;;4.60;3.00;;;18.80;72.30;;;;;;5124418;28;20163;-82
2021/07/07 03:42:43;;;;;;;5.47;2.80;;;18.80;72.00;;;;;;5124825;28;20228;-84
2021/07/07 03:45:14;;;;;;;3.58;2.45;;;18.80;72.00;;;;;;5123507;28;20175;-83
2021/07/07 03:47:40;;;;;;;7.25;3.13;;;18.80;72.00;;;;;;5123783;28;20183;-83
2021/07/07 03:50:07;;;;;;;5.30;2.78;;;18.80;72.10;;;;;;5126082;28;20179;-83
2021/07/07 03:52:33;;;;;;;8.20;2.90;;;18.80;72.30;;;;;;5125082;28;20274;-83
2021/07/07 03:54:59;;;;;;;4.23;2.63;;;18.70;72.60;;;;;;5125872;28;20267;-83
2021/07/07 03:57:25;;;;;;;4.32;2.40;;;18.80;72.60;;;;;;5122959;28;20409;-83
2021/07/07 03:59:51;;;;;;;10.30;2.93;;;18.80;72.40;;;;;;5123438;28;20190;-83
2021/07/07 04:02:16;;;;;;;5.00;2.63;;;18.80;72.20;;;;;;5122870;28;20199;-84
2021/07/07 04:04:45;;;;;;;6.90;2.63;;;18.90;72.40;;;;;;5124321;28;20179;-84
2021/07/07 04:07:11;;;;;;;7.25;2.83;;;18.80;72.10;;;;;;5123961;27;20201;-83
2021/07/07 04:09:37;;;;;;;3.92;2.60;;;18.80;72.10;;;;;;5122901;28;20244;-84
2021/07/07 04:12:03;;;;;;;10.68;2.25;;;18.80;72.20;;;;;;5122529;28;20230;-84
2021/07/07 04:14:29;;;;;;;4.72;2.75;;;18.90;72.20;;;;;;5123143;28;20175;-83
2021/07/07 04:16:56;;;;;;;4.30;3.03;;;18.90;72.20;;;;;;5122748;28;20171;-83
2021/07/07 04:19:23;;;;;;;5.78;3.28;;;18.90;72.10;;;;;;5124226;28;20309;-84
2021/07/07 04:21:50;;;;;;;7.90;2.60;;;18.90;72.10;;;;;;5122265;28;20685;-84
2021/07/07 04:24:16;;;;;;;23.45;4.68;;;18.80;72.20;;;;;;5122309;28;20179;-83
2021/07/07 04:26:43;;;;;;;4.70;2.60;;;18.70;72.40;;;;;;5114242;28;20195;-83
2021/07/07 04:29:09;;;;;;;5.63;2.92;;;18.70;72.70;;;;;;5101948;28;20186;-83
2021/07/07 04:31:35;;;;;;;6.23;3.10;;;18.70;72.80;;;;;;5101023;28;20310;-84
2021/07/07 04:34:01;;;;;;;6.00;2.83;;;18.60;72.80;;;;;;5104224;28;20440;-84
2021/07/07 04:36:27;;;;;;;4.50;2.93;;;18.70;72.80;;;;;;5103910;28;20184;-84
2021/07/07 04:38:52;;;;;;;2.90;2.70;;;18.60;72.70;;;;;;5103090;28;20180;-84
2021/07/07 04:41:18;;;;;;;12.47;3.60;;;18.50;72.80;;;;;;5101150;28;20433;-83
2021/07/07 04:43:44;;;;;;;9.33;2.70;;;18.50;73.00;;;;;;5102453;28;20207;-83
2021/07/07 04:46:09;;;;;;;7.83;2.87;;;18.40;73.00;;;;;;5102311;28;20554;-83
2021/07/07 04:48:36;;;;;;;8.73;3.03;;;18.50;73.00;;;;;;5105346;28;20229;-84
2021/07/07 04:51:01;;;;;;;5.40;2.53;;;18.60;72.80;;;;;;5121802;28;20677;-83
2021/07/07 04:53:27;;;;;;;4.10;2.53;;;18.70;72.70;;;;;;5124609;28;20179;-83
2021/07/07 04:55:53;;;;;;;7.17;2.90;;;18.80;72.40;;;;;;5122590;28;20405;-84
2021/07/07 04:58:19;;;;;;;5.77;2.17;;;18.90;72.20;;;;;;5121909;28;20178;-83
2021/07/07 05:00:45;;;;;;;2.67;2.20;;;19.10;71.30;;;;;;5120626;28;20440;-84
2021/07/07 05:03:11;;;;;;;3.77;2.37;;;19.20;70.80;;;;;;5120296;28;20175;-84
2021/07/07 05:05:36;;;;;;;7.40;3.00;;;19.40;70.10;;;;;;5121969;27;20175;-84
2021/07/07 05:08:04;;;;;;;8.60;4.43;;;19.50;70.60;;;;;;5120083;28;20179;-83
2021/07/07 05:10:31;;;;;;;4.90;2.10;;;19.70;69.90;;;;;;5119932;28;20302;-83
2021/07/07 05:12:58;;;;;;;5.15;2.17;;;19.90;68.50;;;;;;5118685;28;20195;-84
2021/07/07 05:15:24;;;;;;;4.93;2.00;;;20.10;68.00;;;;;;5116921;28;20171;-83
2021/07/07 05:17:50;;;;;;;5.97;2.60;;;20.30;67.50;;;;;;5122489;28;20236;-83
2021/07/07 05:20:17;;;;;;;4.25;2.63;;;20.50;65.90;;;;;;5123491;28;20281;-85
2021/07/07 05:22:44;;;;;;;4.73;2.17;;;21.00;65.70;;;;;;5124818;28;20202;-84
2021/07/07 05:25:14;;;;;;;5.83;1.90;;;22.00;64.00;;;;;;5123550;28;20466;-83
2021/07/07 05:27:39;;;;;;;2.90;1.80;;;23.10;60.40;;;;;;5108234;28;20497;-84
2021/07/07 05:30:07;;;;;;;2.90;1.97;;;24.40;56.60;;;;;;5107852;28;20418;-84
2021/07/07 05:32:33;;;;;;;9.87;2.17;;;24.60;53.60;;;;;;5094794;28;20211;-84
2021/07/07 05:35:00;;;;;;;5.13;2.13;;;24.70;52.40;;;;;;5097752;28;20435;-84
2021/07/07 05:37:26;;;;;;;6.30;1.97;;;24.30;52.60;;;;;;5104800;28;20401;-84
2021/07/07 05:39:53;;;;;;;4.90;2.37;;;24.10;52.70;;;;;;5104240;28;20425;-84
2021/07/07 05:42:20;;;;;;;7.10;1.80;;;23.80;53.00;;;;;;5102118;28;20464;-84
2021/07/07 05:44:52;;;;;;;3.90;2.37;;;23.70;54.00;;;;;;5100206;28;20478;-85
2021/07/07 05:47:19;;;;;;;4.73;2.20;;;23.60;54.10;;;;;;5100743;28;20457;-84
2021/07/07 05:49:45;;;;;;;6.10;2.70;;;23.50;54.60;;;;;;5113386;28;20420;-84
2021/07/07 05:52:11;;;;;;;8.53;2.47;;;23.30;55.20;;;;;;5119562;28;20998;-84
2021/07/07 05:54:38;;;;;;;5.10;2.27;;;23.30;55.30;;;;;;5120758;28;20167;-83
2021/07/07 05:57:04;;;;;;;3.73;1.97;;;23.30;54.90;;;;;;5123488;28;20412;-83
2021/07/07 05:59:29;;;;;;;8.20;1.90;;;23.40;55.30;;;;;;5124569;28;20405;-84
2021/07/07 06:01:55;;;;;;;5.03;2.57;;;23.20;54.70;;;;;;5120679;28;20429;-83
2021/07/07 06:04:21;;;;;;;11.10;3.17;;;23.50;54.70;;;;;;5101394;28;20548;-84
2021/07/07 06:06:46;;;;;;;10.07;3.40;;;23.70;54.30;;;;;;5099667;28;20182;-84
2021/07/07 06:09:12;;;;;;;5.00;2.27;;;23.70;54.00;;;;;;5100675;28;20210;-84
2021/07/07 06:11:38;;;;;;;8.00;2.30;;;23.60;54.20;;;;;;5101038;28;20682;-84
2021/07/07 06:14:04;;;;;;;3.80;2.50;;;23.50;54.60;;;;;;5098040;28;20181;-85
2021/07/07 06:16:30;;;;;;;9.70;2.90;;;23.20;53.50;;;;;;5098077;28;20203;-84
2021/07/07 06:18:58;;;;;;;3.90;1.97;;;23.00;54.20;;;;;;5101022;28;20402;-84
2021/07/07 06:21:23;;;;;;;7.90;2.90;;;22.90;55.60;;;;;;5100113;28;20461;-84
2021/07/07 06:23:49;;;;;;;6.23;2.60;;;22.70;55.60;;;;;;5102303;28;20429;-84
2021/07/07 06:26:15;;;;;;;5.00;2.73;;;22.60;56.10;;;;;;5101680;28;20228;-85
2021/07/07 06:28:40;;;;;;;7.67;2.23;;;22.70;56.10;;;;;;5098972;28;20187;-84
2021/07/07 06:31:06;;;;;;;5.00;2.13;;;22.60;55.80;;;;;;5097346;28;20261;-84
2021/07/07 06:33:32;;;;;;;8.07;2.20;;;22.50;56.70;;;;;;5099123;28;20580;-84
2021/07/07 06:35:58;;;;;;;5.30;2.73;;;22.60;56.90;;;;;;5098825;28;20505;-84
2021/07/07 06:38:23;;;;;;;7.47;3.03;;;23.00;56.70;;;;;;5100243;28;20163;-84
2021/07/07 06:40:49;;;;;;;6.23;2.13;;;23.80;55.70;;;;;;5098013;28;20187;-85
2021/07/07 06:43:16;;;;;;;2.93;2.27;;;24.70;52.70;;;;;;5097997;28;20591;-85
2021/07/07 06:45:42;;;;;;;10.40;2.43;;;26.30;50.10;;;;;;5097809;28;20180;-85
2021/07/07 06:48:09;;;;;;;9.47;2.43;;;26.90;44.70;;;;;;5098959;28;20416;-84
2021/07/07 06:50:36;;;;;;;8.23;2.50;;;27.20;44.60;;;;;;5117176;28;20175;-85
2021/07/07 06:53:02;;;;;;;7.10;2.10;;;27.30;43.70;;;;;;5118614;28;20405;-85
2021/07/07 06:55:28;;;;;;;3.97;1.90;;;27.70;43.30;;;;;;5118356;28;20412;-85
2021/07/07 06:57:55;;;;;;;4.77;2.10;;;28.00;42.20;;;;;;5119740;28;20409;-84
2021/07/07 07:00:22;;;;;;;7.07;3.30;;;27.70;41.60;;;;;;5117932;28;20175;-85
2021/07/07 07:02:48;;;;;;;4.93;2.27;;;27.80;41.20;;;;;;5114104;28;20408;-84
2021/07/07 07:05:16;;;;;;;5.73;2.30;;;27.70;41.70;;;;;;5097849;28;20479;-84
2021/07/07 07:07:42;;;;;;;2.47;2.20;;;27.60;42.30;;;;;;5098093;28;20451;-85
2021/07/07 07:10:10;;;;;;;4.70;2.70;;;27.60;42.00;;;;;;5097896;28;20788;-85
2021/07/07 07:12:36;;;;;;;10.67;2.93;;;27.50;41.20;;;;;;5096522;28;20465;-85
2021/07/07 07:15:05;;;;;;;7.33;2.77;;;27.50;42.00;;;;;;5097417;28;20401;-85
2021/07/07 07:17:33;;;;;;;3.60;2.40;;;27.20;42.20;;;;;;5097925;28;20406;-85
2021/07/07 07:19:59;;;;;;;5.80;2.70;;;26.90;42.30;;;;;;5098820;28;20417;-85
2021/07/07 07:22:25;;;;;;;5.73;2.60;;;26.90;42.80;;;;;;5095875;28;20488;-85
2021/07/07 07:24:51;;;;;;;6.40;2.37;;;27.10;43.10;;;;;;5095820;28;20418;-85
2021/07/07 07:27:17;;;;;;;17.23;4.07;;;27.20;42.30;;;;;;5097145;28;20164;-84
2021/07/07 07:29:44;;;;;;;10.40;2.20;;;27.10;42.60;;;;;;5098932;28;20895;-85
2021/07/07 07:32:10;;;;;;;3.00;2.40;;;27.20;42.70;;;;;;5096940;28;20466;-86
2021/07/07 07:34:36;;;;;;;6.60;3.07;;;26.80;43.00;;;;;;5094813;28;20416;-85
2021/07/07 07:37:03;;;;;;;8.90;3.20;;;26.60;43.50;;;;;;5095402;28;20172;-86
2021/07/07 07:39:39;;;;;;;8.70;2.77;;;26.10;44.10;;;;;;5095778;28;20439;-85
2021/07/07 07:42:05;;;;;;;7.37;2.10;;;25.30;45.30;;;;;;5094113;28;20487;-86
2021/07/07 07:44:31;;;;;;;8.30;2.63;;;24.90;47.00;;;;;;5094640;28;20409;-86
2021/07/07 07:46:58;;;;;;;6.20;3.10;;;24.50;48.30;;;;;;5094500;28;20410;-85
2021/07/07 07:49:24;;;;;;;4.97;3.10;;;24.20;49.30;;;;;;5104783;28;20424;-85
2021/07/07 07:51:50;;;;;;;10.10;2.53;;;23.70;50.90;;;;;;5114450;28;20488;-85
2021/07/07 07:54:16;;;;;;;10.73;3.03;;;23.40;51.90;;;;;;5115954;28;20432;-85
2021/07/07 07:56:42;;;;;;;5.10;3.03;;;23.30;53.00;;;;;;5120489;28;20194;-86
2021/07/07 07:59:07;;;;;;;12.37;2.57;;;23.30;53.10;;;;;;5116702;28;20409;-85
2021/07/07 08:01:34;;;;;;;9.53;2.20;;;23.30;53.70;;;;;;5114309;28;20195;-85
2021/07/07 08:04:04;;;;;;;6.90;3.37;;;23.30;53.50;;;;;;5114858;28;20179;-85
2021/07/07 08:06:31;;;;;;;8.37;2.70;;;23.40;53.10;;;;;;5115631;28;20452;-85
2021/07/07 08:08:57;;;;;;;5.63;2.50;;;23.20;53.70;;;;;;5113879;28;20465;-86
2021/07/07 08:11:23;;;;;;;8.13;3.07;;;23.20;54.20;;;;;;5113856;28;20563;-86
2021/07/07 08:13:48;;;;;;;6.53;3.20;;;23.10;54.70;;;;;;5120603;28;20424;-85
2021/07/07 08:16:14;;;;;;;5.80;3.20;;;23.40;54.80;;;;;;5120332;28;20405;-85
2021/07/07 08:18:40;;;;;;;4.87;3.03;;;23.50;53.80;;;;;;5120503;28;20172;-86
2021/07/07 08:21:06;;;;;;;3.73;2.20;;;23.40;53.60;;;;;;5115310;28;20198;-86
2021/07/07 08:23:32;;;;;;;6.80;3.03;;;23.40;53.50;;;;;;5116015;28;20417;-85
2021/07/07 08:25:59;;;;;;;5.43;2.80;;;23.30;54.10;;;;;;5116420;28;20449;-85
2021/07/07 08:28:25;;;;;;;5.67;2.87;;;23.10;53.90;;;;;;5115652;28;20448;-85
2021/07/07 08:30:51;;;;;;;4.07;2.97;;;23.10;54.30;;;;;;5116566;28;20409;-84
2021/07/07 08:33:17;;;;;;;8.80;3.60;;;23.30;54.20;;;;;;5118522;28;20413;-85
2021/07/07 08:35:43;;;;;;;8.17;2.60;;;23.30;54.10;;;;;;5122332;28;20178;-85
2021/07/07 08:38:09;;;;;;;5.30;2.43;;;23.30;53.50;;;;;;5123590;28;20919;-85
2021/07/07 08:40:35;;;;;;;2.67;2.43;;;23.80;52.20;;;;;;5111866;28;20513;-85
2021/07/07 08:43:01;;;;;;;3.97;2.47;;;24.20;51.00;;;;;;5088240;28;20233;-87
2021/07/07 08:45:27;;;;;;;2.90;2.67;;;24.40;50.70;;;;;;5098457;28;20278;-85
2021/07/07 08:47:53;;;;;;;8.40;2.63;;;24.40;50.20;;;;;;5102654;28;20441;-86
2021/07/07 08:50:29;;;;;;;5.63;3.03;;;24.60;50.40;;;;;;5115518;28;20633;-86
2021/07/07 08:53:00;;;;;;;8.83;2.70;;;24.80;49.60;;;;;;5118466;28;20513;-86
2021/07/07 08:55:28;;;;;;;6.43;2.50;;;25.10;48.50;;;;;;5119573;28;20496;-85
2021/07/07 08:57:54;;;;;;;6.20;2.67;;;24.90;49.00;;;;;;5118680;28;20478;-85
2021/07/07 09:00:34;;;;;;;8.50;3.30;;;25.10;48.70;;;;;;5118464;28;20817;-86
2021/07/07 09:03:09;;;;;;;5.37;2.83;;;25.10;48.20;;;;;;5118514;28;20424;-85
2021/07/07 09:05:53;;;;;;;2.77;2.43;;;25.20;47.30;;;;;;5119006;28;20417;-85
2021/07/07 09:08:24;;;;;;;15.10;2.70;;;25.10;47.40;;;;;;5122804;28;20421;-86
2021/07/07 09:10:50;;;;;;;10.07;3.10;;;25.30;47.40;;;;;;5118126;28;20774;-86
2021/07/07 09:13:21;;;;;;;13.53;3.57;;;25.10;47.10;;;;;;5117874;28;20417;-86
2021/07/07 09:15:47;;;;;;;7.00;2.90;;;24.40;47.30;;;;;;5114188;28;20172;-86
2021/07/07 09:18:33;;;;;;;6.90;2.97;;;24.40;48.10;;;;;;5097659;28;20429;-85
2021/07/07 09:20:59;;;;;;;4.43;2.23;;;23.50;49.00;;;;;;5097861;28;20464;-85
2021/07/07 09:23:27;;;;;;;6.00;2.83;;;23.50;50.80;;;;;;5104397;28;20433;-85
2021/07/07 09:26:06;;;;;;;6.17;3.10;;;23.70;51.10;;;;;;5100933;28;20509;-86
2021/07/07 09:28:37;;;;;;;10.43;3.50;;;23.40;51.00;;;;;;5098677;28;20433;-86
2021/07/07 09:31:32;;;;;;;7.03;3.30;;;23.70;51.30;;;;;;5100199;28;20454;-85
2021/07/07 09:34:19;;;;;;;3.73;2.63;;;24.00;51.40;;;;;;5100635;28;20486;-86
2021/07/07 09:36:47;;;;;;;6.27;3.37;;;24.20;50.20;;;;;;5101774;28;20834;-85
2021/07/07 09:39:15;;;;;;;5.93;2.50;;;24.20;49.70;;;;;;5102105;28;20442;-85
2021/07/07 09:41:42;;;;;;;2.57;2.37;;;24.50;50.10;;;;;;5100699;28;20460;-87
2021/07/07 09:44:10;;;;;;;8.60;2.93;;;24.50;49.40;;;;;;5101705;28;20460;-87
2021/07/07 09:46:36;;;;;;;2.63;2.17;;;24.50;49.90;;;;;;5100501;28;20469;-85
2021/07/07 09:49:02;;;;;;;11.60;3.30;;;24.40;48.80;;;;;;5106224;28;20425;-85
2021/07/07 09:51:28;;;;;;;4.03;2.57;;;24.40;48.60;;;;;;5118850;28;20540;-85
2021/07/07 09:53:54;;;;;;;6.50;2.80;;;24.20;47.70;;;;;;5122262;28;20979;-84
2021/07/07 09:56:20;;;;;;;6.60;2.43;;;23.80;48.40;;;;;;5122291;28;20187;-84
2021/07/07 09:58:46;;;;;;;6.60;2.83;;;24.20;48.40;;;;;;5118372;28;20186;-84
2021/07/07 10:01:11;;;;;;;5.53;2.83;;;24.20;48.20;;;;;;5118431;28;20545;-84
2021/07/07 10:03:37;;;;;;;2.80;2.33;;;24.40;48.10;;;;;;5122470;28;20843;-84
2021/07/07 10:06:03;;;;;;;4.70;2.80;;;24.60;48.00;;;;;;5118167;28;20630;-85
2021/07/07 10:08:30;;;;;;;8.30;2.83;;;25.00;47.60;;;;;;5117502;28;20710;-85
2021/07/07 10:11:00;;;;;;;4.20;2.73;;;25.30;46.70;;;;;;5117966;28;20480;-85
2021/07/07 10:13:27;;;;;;;3.20;2.30;;;25.20;46.10;;;;;;5121157;28;20486;-86
2021/07/07 10:15:54;;;;;;;7.40;2.60;;;25.10;46.30;;;;;;5115657;28;20416;-85
2021/07/07 10:18:20;;;;;;;5.50;2.87;;;24.90;46.70;;;;;;5103230;28;20494;-85
2021/07/07 10:20:46;;;;;;;5.43;3.10;;;24.90;46.40;;;;;;5101032;28;20413;-85
2021/07/07 10:23:13;;;;;;;4.27;3.00;;;24.90;45.90;;;;;;5100787;28;20425;-85
2021/07/07 10:25:39;;;;;;;6.77;3.60;;;24.60;45.80;;;;;;5102229;28;20482;-85
2021/07/07 10:28:11;;;;;;;8.60;3.50;;;24.40;46.50;;;;;;5102195;28;20745;-85
2021/07/07 10:30:56;;;;;;;4.20;3.03;;;24.40;46.70;;;;;;5105713;28;20426;-85
2021/07/07 10:33:25;;;;;;;4.70;2.80;;;24.20;47.40;;;;;;5108304;28;20430;-84
2021/07/07 10:36:11;;;;;;;4.10;3.10;;;24.00;47.90;;;;;;5106509;28;20525;-85
2021/07/07 10:38:37;;;;;;;6.90;2.97;;;24.10;47.90;;;;;;5105360;28;20471;-86
2021/07/07 10:41:04;;;;;;;4.17;2.93;;;24.40;47.60;;;;;;5108738;28;20465;-86
2021/07/07 10:43:47;;;;;;;3.43;2.30;;;24.50;47.40;;;;;;5113826;28;20466;-86
2021/07/07 10:46:34;;;;;;;3.47;2.20;;;24.70;47.40;;;;;;5114961;28;20421;-86
2021/07/07 10:49:18;;;;;;;3.13;2.37;;;24.90;46.80;;;;;;5122756;28;20659;-86
2021/07/07 10:51:49;;;;;;;3.50;2.43;;;24.40;45.80;;;;;;5136541;28;20516;-85
2021/07/07 10:54:23;;;;;;;5.93;3.07;;;24.60;47.30;;;;;;5116025;28;20472;-86
2021/07/07 10:56:51;;;;;;;6.00;2.73;;;24.60;46.70;;;;;;5113062;28;20405;-86
2021/07/07 10:59:38;;;;;;;7.93;3.00;;;24.10;46.40;;;;;;5110375;28;20425;-86
2021/07/07 11:02:07;;;;;;;5.33;2.60;;;24.50;47.40;;;;;;5103475;28;20456;-86
2021/07/07 11:04:42;;;;;;;3.27;2.30;;;24.70;46.60;;;;;;5095321;28;20418;-86
2021/07/07 11:07:33;;;;;;;5.07;2.67;;;24.20;46.50;;;;;;5095415;28;20409;-86
2021/07/07 11:10:17;;;;;;;2.73;2.50;;;24.00;46.60;;;;;;5095198;28;20471;-85
2021/07/07 11:12:44;;;;;;;2.83;2.63;;;24.50;47.10;;;;;;5096971;28;20477;-86
2021/07/07 11:15:14;;;;;;;3.03;2.70;;;24.60;45.80;;;;;;5096734;28;20476;-85
2021/07/07 11:17:45;;;;;;;4.50;2.00;;;24.80;45.50;;;;;;5095391;28;20414;-85
2021/07/07 11:20:13;;;;;;;4.13;2.10;;;25.10;45.50;;;;;;5094278;28;20406;-86
2021/07/07 11:22:41;;;;;;;6.10;2.90;;;25.50;45.20;;;;;;5093259;28;20441;-86
2021/07/07 11:25:10;;;;;;;8.93;2.90;;;25.80;44.70;;;;;;5093933;28;20437;-85
2021/07/07 11:27:37;;;;;;;5.10;3.10;;;26.10;44.70;;;;;;5094940;28;20421;-86
2021/07/07 11:30:09;;;;;;;4.80;2.83;;;26.40;43.30;;;;;;5094436;28;20414;-86
2021/07/07 11:32:37;;;;;;;3.80;2.57;;;26.50;43.60;;;;;;5095897;28;20480;-86
2021/07/07 11:35:12;;;;;;;4.23;2.70;;;26.60;42.10;;;;;;5094541;28;20420;-86
2021/07/07 11:37:38;;;;;;;3.70;3.10;;;26.50;42.30;;;;;;5094996;28;20411;-85
2021/07/07 11:40:17;;;;;;;4.37;2.70;;;26.50;42.20;;;;;;5095384;28;20407;-85
2021/07/07 11:43:08;;;;;;;5.30;2.80;;;26.70;42.60;;;;;;5095566;28;20444;-85
2021/07/07 11:45:49;;;;;;;5.73;2.73;;;26.80;42.50;;;;;;5094721;28;20414;-85
2021/07/07 11:48:22;;;;;;;7.27;2.87;;;27.00;42.60;;;;;;5094809;28;20413;-85
2021/07/07 11:50:54;;;;;;;4.57;2.20;;;27.00;41.30;;;;;;5114244;28;20469;-85
2021/07/07 11:53:21;;;;;;;4.30;2.50;;;27.10;41.20;;;;;;5112240;28;20432;-85
2021/07/07 11:56:03;;;;;;;5.33;3.00;;;26.90;40.70;;;;;;5094273;28;20413;-85
2021/07/07 11:58:35;;;;;;;4.03;2.47;;;26.70;40.00;;;;;;5094424;28;20438;-85
2021/07/07 12:01:31;;;;;;;5.10;3.00;;;26.60;41.40;;;;;;5093366;28;20435;-86
2021/07/07 12:03:59;;;;;;;3.13;2.80;;;26.70;42.50;;;;;;5091979;28;20562;-86
2021/07/07 12:06:33;;;;;;;3.50;2.80;;;26.60;41.50;;;;;;5097888;28;20416;-85
2021/07/07 12:09:00;;;;;;;3.80;2.20;;;26.30;42.70;;;;;;5098376;28;20419;-85
2021/07/07 12:11:26;;;;;;;3.07;2.70;;;26.30;43.20;;;;;;5100547;28;20463;-84
2021/07/07 12:13:54;;;;;;;5.03;2.90;;;26.20;43.20;;;;;;5098217;28;20435;-85
2021/07/07 12:16:21;;;;;;;5.50;3.27;;;26.10;43.50;;;;;;5097926;28;20416;-85
2021/07/07 12:18:51;;;;;;;2.93;2.50;;;26.10;43.80;;;;;;5096942;28;20434;-86
2021/07/07 12:21:23;;;;;;;5.23;2.67;;;26.10;43.30;;;;;;5098110;28;20439;-85
2021/07/07 12:23:54;;;;;;;4.87;2.70;;;26.00;42.30;;;;;;5097724;28;20410;-86
2021/07/07 12:26:27;;;;;;;8.30;3.20;;;25.50;42.70;;;;;;5098551;28;20414;-86
2021/07/07 12:28:57;;;;;;;4.10;2.80;;;25.50;43.80;;;;;;5097547;28;20406;-85
2021/07/07 12:31:24;;;;;;;7.17;2.10;;;25.40;43.50;;;;;;5097419;28;20881;-86
2021/07/07 12:33:53;;;;;;;3.43;2.50;;;25.50;42.50;;;;;;5098699;28;20482;-85
2021/07/07 12:36:32;;;;;;;3.20;2.50;;;25.80;41.50;;;;;;5097901;28;20414;-85
2021/07/07 12:39:04;;;;;;;4.10;2.13;;;25.90;41.50;;;;;;5097677;28;20908;-85
2021/07/07 12:41:34;;;;;;;2.00;1.90;;;26.10;42.00;;;;;;5099420;28;20517;-86
2021/07/07 12:44:11;;;;;;;8.70;2.27;;;25.90;41.00;;;;;;5098096;28;20428;-85
2021/07/07 12:47:09;;;;;;;3.13;2.20;;;26.10;41.40;;;;;;5103372;28;20445;-85
2021/07/07 12:49:47;;;;;;;4.80;2.50;;;26.00;39.90;;;;;;5093485;28;20435;-84